createdAt,value
2019-02-24T00:01:33.877Z,99.90
2019-02-24T00:04:02.307Z,99.90
2019-02-24T00:06:30.775Z,99.90
2019-02-24T00:08:59.178Z,99.90
2019-02-24T00:11:27.652Z,99.90
2019-02-24T00:13:56.064Z,99.90
2019-02-24T00:16:24.535Z,99.90
2019-02-24T00:18:53.050Z,99.90
2019-02-24T00:21:23.148Z,99.90
2019-02-24T00:23:51.574Z,99.90
2019-02-24T00:26:20.018Z,99.90
2019-02-24T00:28:48.463Z,99.90
2019-02-24T00:31:16.929Z,99.90
2019-02-24T00:33:45.347Z,99.90
2019-02-24T00:36:13.774Z,99.90
2019-02-24T00:38:42.252Z,99.90
2019-02-24T00:41:10.771Z,99.90
2019-02-24T00:43:39.239Z,99.90
2019-02-24T00:46:07.711Z,99.90
2019-02-24T00:48:36.167Z,99.90
2019-02-24T00:51:04.669Z,99.90
2019-02-24T00:53:33.191Z,99.90
2019-02-24T00:56:01.695Z,99.90
2019-02-24T00:58:30.252Z,99.90
2019-02-24T01:00:58.688Z,99.90
2019-02-24T01:03:30.224Z,99.90
2019-02-24T01:06:02.846Z,99.90
2019-02-24T01:08:31.297Z,99.90
2019-02-24T01:10:59.717Z,99.90
2019-02-24T01:13:28.163Z,99.90
2019-02-24T01:15:56.593Z,99.90
2019-02-24T01:18:25.046Z,99.90
2019-02-24T01:20:53.516Z,99.90
2019-02-24T01:23:22.035Z,99.90
2019-02-24T01:25:50.455Z,99.90
2019-02-24T01:28:25.110Z,99.90
2019-02-24T01:30:49.133Z,99.90
2019-02-24T01:33:17.687Z,99.90
2019-02-24T01:35:46.207Z,99.90
2019-02-24T01:38:14.691Z,99.90
2019-02-24T01:40:43.138Z,99.90
2019-02-24T01:43:11.675Z,99.90
2019-02-24T01:45:40.103Z,99.90
2019-02-24T01:48:08.529Z,99.90
2019-02-24T01:50:36.979Z,99.90
2019-02-24T01:53:05.411Z,99.90
2019-02-24T01:55:33.851Z,99.90
2019-02-24T01:58:02.346Z,99.90
2019-02-24T02:00:30.825Z,99.90
2019-02-24T02:02:59.260Z,99.90
2019-02-24T02:05:27.703Z,99.90
2019-02-24T02:07:56.181Z,99.90
2019-02-24T02:10:24.711Z,99.90
2019-02-24T02:12:53.218Z,99.90
2019-02-24T02:15:21.740Z,99.90
2019-02-24T02:17:50.169Z,99.90
2019-02-24T02:20:18.699Z,99.90
2019-02-24T02:22:47.127Z,99.90
2019-02-24T02:25:15.639Z,99.90
2019-02-24T02:27:44.063Z,99.90
2019-02-24T02:30:12.648Z,99.90
2019-02-24T02:32:41.191Z,99.90
2019-02-24T02:35:09.707Z,99.90
2019-02-24T02:37:38.156Z,99.90
2019-02-24T02:40:08.292Z,99.90
2019-02-24T02:42:36.741Z,99.90
2019-02-24T02:45:07.654Z,99.90
2019-02-24T02:47:36.124Z,99.90
2019-02-24T02:50:05.452Z,99.90
2019-02-24T02:52:33.914Z,99.90
2019-02-24T02:55:02.362Z,99.90
2019-02-24T02:57:30.826Z,99.90
2019-02-24T02:59:59.242Z,99.90
2019-02-24T03:02:27.712Z,99.90
2019-02-24T03:04:56.240Z,99.90
2019-02-24T03:07:26.321Z,99.90
2019-02-24T03:09:54.743Z,99.90
2019-02-24T03:12:23.187Z,99.90
2019-02-24T03:14:51.612Z,99.90
2019-02-24T03:17:20.058Z,99.90
2019-02-24T03:19:48.484Z,99.90
2019-02-24T03:22:17.053Z,99.90
2019-02-24T03:24:45.487Z,99.90
2019-02-24T03:27:13.991Z,99.90
2019-02-24T03:29:42.487Z,99.90
2019-02-24T03:32:10.936Z,99.90
2019-02-24T03:34:39.380Z,99.90
2019-02-24T03:37:07.848Z,99.90
2019-02-24T03:39:36.290Z,99.90
2019-02-24T03:42:04.799Z,99.90
2019-02-24T03:44:33.254Z,99.90
2019-02-24T03:47:01.689Z,99.90
2019-02-24T03:49:30.191Z,99.90
2019-02-24T03:51:58.614Z,99.90
2019-02-24T03:54:27.135Z,99.90
2019-02-24T03:56:55.832Z,99.90
2019-02-24T03:59:24.280Z,99.90
2019-02-24T04:01:52.843Z,99.90
2019-02-24T04:04:21.324Z,99.90
2019-02-24T04:06:49.787Z,99.90
2019-02-24T04:09:18.306Z,99.90
2019-02-24T04:11:46.752Z,99.90
2019-02-24T04:14:15.202Z,99.90
2019-02-24T04:16:43.647Z,99.90
2019-02-24T04:19:12.096Z,99.90
2019-02-24T04:21:40.544Z,99.90
2019-02-24T04:24:09.068Z,99.90
2019-02-24T04:26:37.489Z,99.90
2019-02-24T04:29:05.939Z,99.90
2019-02-24T04:31:34.368Z,99.90
2019-02-24T04:34:02.845Z,99.90
2019-02-24T04:36:31.256Z,99.90
2019-02-24T04:38:59.751Z,99.90
2019-02-24T04:41:28.196Z,99.90
2019-02-24T04:43:56.725Z,99.90
2019-02-24T04:46:25.211Z,99.90
2019-02-24T04:48:53.637Z,99.90
2019-02-24T04:51:22.085Z,99.90
2019-02-24T04:53:50.515Z,99.90
2019-02-24T04:56:18.993Z,99.90
2019-02-24T04:58:47.422Z,99.90
2019-02-24T05:01:15.867Z,99.90
2019-02-24T05:03:44.313Z,99.90
2019-02-24T05:06:12.750Z,99.90
2019-02-24T05:08:41.226Z,99.90
2019-02-24T05:11:09.898Z,99.90
2019-02-24T05:13:38.323Z,99.90
2019-02-24T05:16:06.925Z,99.90
2019-02-24T05:18:35.503Z,99.90
2019-02-24T05:21:03.923Z,99.90
2019-02-24T05:23:32.420Z,99.90
2019-02-24T05:26:00.905Z,99.90
2019-02-24T05:28:29.401Z,99.90
2019-02-24T05:30:57.862Z,99.90
2019-02-24T05:33:26.299Z,99.90
2019-02-24T05:35:54.791Z,99.90
2019-02-24T05:38:23.252Z,99.90
2019-02-24T05:40:51.671Z,99.90
2019-02-24T05:43:20.128Z,99.90
2019-02-24T05:45:48.546Z,99.90
2019-02-24T05:48:16.987Z,99.90
2019-02-24T05:50:45.415Z,99.90
2019-02-24T05:53:13.943Z,99.90
2019-02-24T05:55:42.382Z,99.90
2019-02-24T05:58:10.832Z,99.90
2019-02-24T06:00:39.255Z,99.90
2019-02-24T06:03:07.755Z,99.90
2019-02-24T06:05:36.172Z,99.90
2019-02-24T06:08:04.625Z,99.90
2019-02-24T06:10:33.055Z,99.90
2019-02-24T06:13:01.748Z,99.90
2019-02-24T06:15:30.263Z,99.90
2019-02-24T06:17:58.715Z,99.90
2019-02-24T06:20:27.142Z,99.90
2019-02-24T06:22:55.579Z,99.90
2019-02-24T06:25:24.037Z,99.90
2019-02-24T06:27:52.458Z,99.90
2019-02-24T06:30:20.905Z,99.90
2019-02-24T06:32:49.331Z,99.90
2019-02-24T06:35:17.798Z,99.90
2019-02-24T06:37:46.219Z,99.90
2019-02-24T06:40:14.666Z,99.90
2019-02-24T06:42:43.155Z,99.90
2019-02-24T06:45:11.615Z,99.90
2019-02-24T06:47:40.038Z,99.90
2019-02-24T06:50:09.727Z,99.90
2019-02-24T06:52:38.157Z,99.90
2019-02-24T06:55:08.242Z,99.90
2019-02-24T06:57:36.703Z,99.90
2019-02-24T07:00:13.782Z,99.90
2019-02-24T07:02:37.866Z,99.90
2019-02-24T07:05:08.136Z,99.90
2019-02-24T07:07:36.591Z,99.90
2019-02-24T07:10:06.555Z,99.90
2019-02-24T07:12:34.973Z,99.90
2019-02-24T07:15:04.432Z,99.90
2019-02-24T07:17:32.870Z,99.90
2019-02-24T07:20:01.320Z,99.90
2019-02-24T07:22:29.763Z,99.90
2019-02-24T07:24:58.226Z,99.90
2019-02-24T07:27:26.719Z,99.90
2019-02-24T07:29:55.135Z,99.90
2019-02-24T07:32:23.607Z,99.90
2019-02-24T07:34:52.033Z,99.90
2019-02-24T07:37:20.487Z,99.90
2019-02-24T07:39:48.914Z,99.90
2019-02-24T07:42:17.363Z,99.90
2019-02-24T07:44:45.786Z,99.90
2019-02-24T07:47:14.249Z,99.90
2019-02-24T07:49:42.667Z,99.90
2019-02-24T07:52:11.123Z,99.90
2019-02-24T07:54:39.552Z,99.90
2019-02-24T07:57:08.047Z,99.90
2019-02-24T07:59:36.536Z,99.90
2019-02-24T08:02:05.026Z,99.90
2019-02-24T08:04:33.511Z,99.90
2019-02-24T08:07:01.943Z,99.90
2019-02-24T08:09:30.419Z,99.90
2019-02-24T08:11:58.864Z,99.90
2019-02-24T08:14:27.380Z,99.90
2019-02-24T08:16:55.815Z,99.90
2019-02-24T08:19:24.327Z,99.90
2019-02-24T08:21:52.783Z,99.90
2019-02-24T08:24:21.227Z,99.90
2019-02-24T08:26:49.687Z,99.90
2019-02-24T08:29:18.199Z,99.90
2019-02-24T08:31:46.632Z,99.90
2019-02-24T08:34:15.139Z,99.90
2019-02-24T08:36:43.569Z,99.90
2019-02-24T08:39:12.036Z,99.90
2019-02-24T08:41:40.556Z,99.90
2019-02-24T08:44:08.992Z,99.90
2019-02-24T08:46:37.499Z,99.90
2019-02-24T08:49:05.951Z,99.90
2019-02-24T08:51:34.458Z,99.90
2019-02-24T08:54:02.959Z,99.90
2019-02-24T08:56:31.459Z,99.90
2019-02-24T08:58:59.976Z,99.90
2019-02-24T09:01:28.432Z,99.90
2019-02-24T09:03:56.908Z,99.90
2019-02-24T09:06:25.351Z,99.90
2019-02-24T09:08:53.809Z,99.90
2019-02-24T09:11:22.242Z,99.90
2019-02-24T09:13:50.692Z,99.90
2019-02-24T09:16:19.159Z,99.90
2019-02-24T09:18:47.594Z,99.90
2019-02-24T09:21:16.056Z,99.90
2019-02-24T09:23:44.556Z,99.90
2019-02-24T09:26:13.156Z,99.90
2019-02-24T09:28:41.659Z,99.90
2019-02-24T09:31:10.164Z,99.90
2019-02-24T09:33:38.600Z,99.90
2019-02-24T09:36:07.138Z,99.90
2019-02-24T09:38:35.601Z,99.90
2019-02-24T09:41:05.744Z,99.90
2019-02-24T09:43:34.204Z,99.90
2019-02-24T09:46:02.708Z,99.90
2019-02-24T09:48:31.166Z,99.90
2019-02-24T09:50:59.616Z,99.90
2019-02-24T09:53:28.090Z,99.90
2019-02-24T09:55:56.576Z,99.90
2019-02-24T09:58:25.044Z,99.90
2019-02-24T10:00:53.536Z,99.90
2019-02-24T10:03:22.016Z,99.90
2019-02-24T10:05:50.484Z,99.90
2019-02-24T10:08:18.967Z,99.90
2019-02-24T10:10:47.467Z,99.90
2019-02-24T10:13:15.924Z,99.90
2019-02-24T10:15:44.348Z,99.90
2019-02-24T10:18:12.858Z,99.90
2019-02-24T10:20:41.304Z,99.90
2019-02-24T10:23:09.896Z,99.90
2019-02-24T10:25:38.321Z,99.90
2019-02-24T10:28:06.788Z,99.90
2019-02-24T10:30:35.335Z,99.90
2019-02-24T10:33:03.888Z,99.90
2019-02-24T10:35:32.372Z,99.90
2019-02-24T10:38:00.832Z,99.90
2019-02-24T10:40:29.455Z,99.90
2019-02-24T10:42:57.849Z,99.90
2019-02-24T10:45:26.324Z,99.90
2019-02-24T10:47:54.735Z,99.90
2019-02-24T10:50:23.189Z,99.90
2019-02-24T10:52:51.706Z,99.90
2019-02-24T10:55:20.147Z,99.90
2019-02-24T10:57:48.575Z,99.90
2019-02-24T11:00:18.922Z,99.90
2019-02-24T11:02:47.516Z,99.90
2019-02-24T11:05:17.593Z,99.90
2019-02-24T11:07:46.172Z,99.50
2019-02-24T11:10:14.739Z,98.30
2019-02-24T11:12:43.348Z,98.00
2019-02-24T11:15:12.937Z,98.00
2019-02-24T11:17:41.512Z,97.50
2019-02-24T11:20:12.791Z,95.80
2019-02-24T11:22:41.390Z,94.60
2019-02-24T11:25:11.315Z,93.80
2019-02-24T11:27:39.796Z,91.30
2019-02-24T11:30:11.170Z,94.50
2019-02-24T11:32:39.603Z,91.10
2019-02-24T11:35:10.939Z,90.90
2019-02-24T11:37:39.552Z,91.60
2019-02-24T11:40:11.090Z,91.10
2019-02-24T11:42:39.543Z,92.90
2019-02-24T11:45:09.332Z,91.40
2019-02-24T11:47:37.882Z,91.10
2019-02-24T11:50:09.066Z,90.90
2019-02-24T11:52:37.517Z,90.40
2019-02-24T11:55:07.618Z,90.00
2019-02-24T11:57:36.183Z,90.10
2019-02-24T12:00:10.144Z,87.60
2019-02-24T12:02:38.604Z,87.80
2019-02-24T12:05:08.115Z,87.30
2019-02-24T12:07:36.572Z,84.80
2019-02-24T12:10:08.189Z,85.60
2019-02-24T12:12:36.740Z,84.50
2019-02-24T12:15:13.518Z,81.90
2019-02-24T12:17:42.069Z,82.00
2019-02-24T12:20:12.717Z,81.10
2019-02-24T12:22:41.285Z,78.70
2019-02-24T12:25:11.200Z,81.30
2019-02-24T12:27:39.666Z,79.50
2019-02-24T12:30:13.410Z,78.30
2019-02-24T12:32:42.104Z,77.60
2019-02-24T12:35:10.795Z,78.90
2019-02-24T12:37:39.258Z,79.70
2019-02-24T12:40:09.919Z,79.50
2019-02-24T12:42:38.340Z,78.70
2019-02-24T12:45:08.761Z,76.70
2019-02-24T12:47:37.342Z,75.70
2019-02-24T12:50:18.644Z,75.50
2019-02-24T12:52:47.168Z,74.00
2019-02-24T12:55:15.700Z,75.40
2019-02-24T12:57:44.572Z,73.20
2019-02-24T13:00:21.832Z,73.70
2019-02-24T13:02:50.362Z,69.40
2019-02-24T13:05:18.890Z,69.30
2019-02-24T13:07:47.395Z,70.90
2019-02-24T13:10:17.088Z,70.00
2019-02-24T13:12:45.574Z,67.70
2019-02-24T13:15:14.132Z,67.80
2019-02-24T13:17:42.691Z,65.40
2019-02-24T13:20:11.876Z,65.40
2019-02-24T13:22:40.316Z,62.90
2019-02-24T13:25:11.236Z,59.80
2019-02-24T13:27:39.732Z,61.50
2019-02-24T13:30:12.582Z,59.60
2019-02-24T13:32:41.085Z,60.10
2019-02-24T13:35:11.574Z,60.00
2019-02-24T13:37:40.033Z,59.50
2019-02-24T13:40:13.717Z,57.50
2019-02-24T13:42:42.164Z,58.10
2019-02-24T13:45:16.345Z,56.90
2019-02-24T13:47:44.843Z,56.50
2019-02-24T13:50:14.511Z,57.30
2019-02-24T13:52:43.111Z,57.50
2019-02-24T13:55:15.786Z,56.40
2019-02-24T13:57:44.364Z,56.40
2019-02-24T14:00:18.194Z,56.30
2019-02-24T14:02:46.705Z,56.20
2019-02-24T14:05:15.206Z,55.60
2019-02-24T14:07:43.810Z,55.40
2019-02-24T14:10:15.327Z,55.50
2019-02-24T14:12:43.930Z,55.20
2019-02-24T14:15:14.583Z,55.50
2019-02-24T14:17:43.244Z,55.70
2019-02-24T14:20:16.698Z,55.50
2019-02-24T14:22:45.307Z,55.20
2019-02-24T14:25:14.671Z,55.80
2019-02-24T14:27:43.111Z,55.10
2019-02-24T14:30:18.395Z,54.10
2019-02-24T14:32:46.986Z,55.70
2019-02-24T14:35:26.463Z,56.00
2019-02-24T14:37:54.952Z,55.60
2019-02-24T14:40:23.457Z,54.20
2019-02-24T14:42:51.934Z,53.60
2019-02-24T14:45:24.154Z,54.30
2019-02-24T14:47:52.673Z,54.30
2019-02-24T14:50:21.124Z,53.00
2019-02-24T14:52:49.570Z,53.20
2019-02-24T14:55:18.120Z,52.00
2019-02-24T14:57:46.630Z,52.80
2019-02-24T15:00:16.947Z,53.00
2019-02-24T15:02:45.901Z,52.70
2019-02-24T15:05:16.554Z,51.90
2019-02-24T15:07:45.139Z,52.10
2019-02-24T15:10:18.225Z,52.20
2019-02-24T15:12:46.657Z,52.70
2019-02-24T15:15:20.199Z,52.30
2019-02-24T15:17:48.660Z,52.70
2019-02-24T15:20:19.847Z,52.80
2019-02-24T15:22:48.274Z,52.10
2019-02-24T15:25:17.871Z,52.10
2019-02-24T15:27:46.445Z,53.00
2019-02-24T15:30:20.888Z,53.20
2019-02-24T15:32:51.919Z,52.10
2019-02-24T15:35:20.627Z,53.40
2019-02-24T15:37:49.203Z,52.10
2019-02-24T15:40:17.827Z,51.90
2019-02-24T15:42:46.263Z,52.00
2019-02-24T15:45:14.799Z,52.80
2019-02-24T15:47:43.319Z,51.90
2019-02-24T15:50:13.214Z,51.00
2019-02-24T15:52:41.739Z,50.50
2019-02-24T15:55:12.019Z,51.30
2019-02-24T15:57:40.444Z,51.30
2019-02-24T16:00:20.654Z,50.80
2019-02-24T16:02:49.186Z,51.20
2019-02-24T16:05:17.807Z,52.60
2019-02-24T16:07:46.238Z,52.40
2019-02-24T16:10:16.610Z,54.90
2019-02-24T16:12:45.406Z,53.40
2019-02-24T16:15:19.171Z,53.60
2019-02-24T16:17:47.782Z,54.50
2019-02-24T16:20:19.131Z,55.20
2019-02-24T16:22:47.669Z,53.60
2019-02-24T16:25:16.119Z,55.20
2019-02-24T16:27:44.964Z,57.90
2019-02-24T16:30:15.131Z,56.90
2019-02-24T16:32:43.699Z,57.70
2019-02-24T16:35:14.802Z,59.30
2019-02-24T16:37:43.243Z,59.40
2019-02-24T16:40:16.903Z,57.50
2019-02-24T16:42:45.374Z,58.70
2019-02-24T16:45:15.648Z,60.00
2019-02-24T16:47:44.259Z,60.60
2019-02-24T16:50:18.153Z,61.30
2019-02-24T16:52:46.740Z,62.40
2019-02-24T16:55:16.324Z,62.10
2019-02-24T16:57:45.015Z,64.00
2019-02-24T17:00:21.132Z,64.30
2019-02-24T17:02:49.641Z,65.00
2019-02-24T17:05:18.317Z,64.80
2019-02-24T17:07:46.858Z,66.20
2019-02-24T17:10:20.579Z,67.50
2019-02-24T17:12:49.046Z,67.80
2019-02-24T17:15:17.640Z,69.90
2019-02-24T17:17:46.104Z,71.40
2019-02-24T17:20:19.267Z,72.40
2019-02-24T17:22:47.863Z,73.00
2019-02-24T17:25:16.442Z,74.60
2019-02-24T17:27:44.943Z,74.80
2019-02-24T17:30:15.047Z,73.60
2019-02-24T17:32:43.767Z,74.70
2019-02-24T17:35:13.547Z,76.00
2019-02-24T17:37:42.153Z,76.80
2019-02-24T17:40:15.948Z,78.00
2019-02-24T17:42:44.479Z,79.60
2019-02-24T17:45:13.872Z,82.40
2019-02-24T17:47:42.387Z,83.70
2019-02-24T17:50:12.568Z,86.80
2019-02-24T17:52:41.077Z,89.10
2019-02-24T17:55:16.672Z,90.30
2019-02-24T17:57:45.228Z,90.90
2019-02-24T18:00:21.345Z,92.90
2019-02-24T18:02:49.847Z,92.70
2019-02-24T18:05:18.359Z,94.70
2019-02-24T18:07:46.898Z,95.20
2019-02-24T18:10:15.433Z,95.60
2019-02-24T18:12:43.921Z,96.00
2019-02-24T18:15:12.916Z,96.70
2019-02-24T18:17:41.464Z,99.00
2019-02-24T18:20:15.915Z,98.90
2019-02-24T18:22:44.431Z,99.20
2019-02-24T18:25:13.345Z,99.90
2019-02-24T18:27:41.823Z,99.90
2019-02-24T18:30:21.992Z,99.90
2019-02-24T18:32:50.669Z,99.90
2019-02-24T18:35:19.273Z,99.90
2019-02-24T18:37:47.955Z,99.90
2019-02-24T18:40:16.914Z,99.90
2019-02-24T18:42:45.471Z,99.90
2019-02-24T18:45:14.935Z,99.90
2019-02-24T18:47:43.745Z,99.90
2019-02-24T18:50:19.213Z,99.90
2019-02-24T18:52:47.693Z,99.90
2019-02-24T18:55:16.385Z,99.90
2019-02-24T18:57:45.523Z,99.90
2019-02-24T19:00:22.572Z,99.90
2019-02-24T19:02:51.155Z,99.90
2019-02-24T19:05:19.658Z,99.90
2019-02-24T19:07:48.283Z,99.90
2019-02-24T19:10:18.675Z,99.90
2019-02-24T19:12:47.203Z,99.90
2019-02-24T19:15:20.408Z,99.90
2019-02-24T19:17:49.025Z,99.90
2019-02-24T19:20:19.100Z,99.90
2019-02-24T19:22:47.726Z,99.90
2019-02-24T19:25:17.153Z,99.90
2019-02-24T19:27:45.897Z,99.90
2019-02-24T19:30:19.514Z,99.90
2019-02-24T19:32:48.034Z,99.90
2019-02-24T19:35:17.653Z,99.90
2019-02-24T19:37:46.265Z,99.90
2019-02-24T19:40:18.114Z,99.90
2019-02-24T19:42:46.612Z,99.90
2019-02-24T19:45:17.275Z,99.90
2019-02-24T19:47:45.806Z,99.90
2019-02-24T19:50:16.669Z,99.90
2019-02-24T19:52:45.182Z,99.90
2019-02-24T19:55:14.943Z,99.90
2019-02-24T19:57:43.467Z,99.90
2019-02-24T20:00:20.313Z,99.90
2019-02-24T20:02:49.193Z,99.90
2019-02-24T20:05:18.251Z,99.90
2019-02-24T20:07:47.113Z,99.90
2019-02-24T20:10:18.649Z,99.90
2019-02-24T20:12:47.147Z,99.90
2019-02-24T20:15:16.444Z,99.90
2019-02-24T20:17:44.945Z,99.90
2019-02-24T20:20:17.582Z,99.90
2019-02-24T20:22:46.203Z,99.90
2019-02-24T20:25:19.287Z,99.90
2019-02-24T20:27:47.770Z,99.90
2019-02-24T20:30:25.225Z,99.90
2019-02-24T20:32:53.770Z,99.90
2019-02-24T20:35:22.251Z,99.90
2019-02-24T20:37:50.669Z,99.90
2019-02-24T20:40:19.182Z,99.90
2019-02-24T20:42:47.657Z,99.90
2019-02-24T20:45:20.858Z,99.90
2019-02-24T20:47:49.508Z,99.90
2019-02-24T20:50:26.285Z,99.90
2019-02-24T20:52:54.742Z,99.90
2019-02-24T20:55:23.623Z,99.90
2019-02-24T20:57:52.067Z,99.90
2019-02-24T21:00:23.407Z,99.90
2019-02-24T21:02:52.134Z,99.90
2019-02-24T21:05:20.572Z,99.90
2019-02-24T21:07:49.040Z,99.90
2019-02-24T21:10:17.563Z,99.90
2019-02-24T21:12:46.080Z,99.90
2019-02-24T21:15:16.144Z,99.90
2019-02-24T21:17:44.811Z,99.90
2019-02-24T21:20:22.589Z,99.90
2019-02-24T21:22:51.157Z,99.90
2019-02-24T21:25:19.592Z,99.90
2019-02-24T21:27:48.114Z,99.90
2019-02-24T21:30:18.090Z,99.90
2019-02-24T21:32:46.690Z,99.90
2019-02-24T21:35:17.171Z,99.90
2019-02-24T21:37:45.603Z,99.90
2019-02-24T21:40:15.542Z,99.90
2019-02-24T21:42:44.066Z,99.90
2019-02-24T21:45:17.479Z,99.90
2019-02-24T21:47:45.915Z,99.90
2019-02-24T21:50:16.170Z,99.90
2019-02-24T21:52:44.843Z,99.90
2019-02-24T21:55:14.381Z,99.90
2019-02-24T21:57:42.837Z,99.90
2019-02-24T22:00:16.840Z,99.90
2019-02-24T22:02:45.291Z,99.90
2019-02-24T22:05:13.915Z,99.90
2019-02-24T22:07:42.890Z,99.90
2019-02-24T22:10:17.300Z,99.90
2019-02-24T22:12:45.852Z,99.90
2019-02-24T22:15:20.381Z,99.90
2019-02-24T22:17:48.808Z,99.90
2019-02-24T22:20:17.401Z,99.90
2019-02-24T22:22:46.118Z,99.90
2019-02-24T22:25:15.306Z,99.90
2019-02-24T22:27:43.898Z,99.90
2019-02-24T22:30:20.076Z,99.90
2019-02-24T22:32:48.517Z,99.90
2019-02-24T22:35:17.002Z,99.90
2019-02-24T22:37:45.597Z,99.90
2019-02-24T22:40:16.792Z,99.90
2019-02-24T22:42:46.001Z,99.90
2019-02-24T22:45:19.572Z,99.90
2019-02-24T22:47:48.097Z,99.90
2019-02-24T22:50:16.922Z,99.90
2019-02-24T22:52:46.849Z,99.90
2019-02-24T22:55:17.003Z,99.90
2019-02-24T22:57:45.895Z,99.90
2019-02-24T23:00:52.422Z,99.90
2019-02-24T23:03:23.192Z,99.90
2019-02-24T23:05:51.785Z,99.90
2019-02-24T23:08:20.437Z,99.90
2019-02-24T23:10:49.048Z,99.90
2019-02-24T23:13:17.520Z,99.90
2019-02-24T23:15:45.955Z,99.90
2019-02-24T23:18:14.591Z,99.90
2019-02-24T23:20:43.003Z,99.90
2019-02-24T23:23:11.530Z,99.90
2019-02-24T23:25:40.099Z,99.90
2019-02-24T23:28:08.676Z,99.90
2019-02-24T23:30:37.180Z,99.90
2019-02-24T23:33:05.611Z,99.90
2019-02-24T23:35:34.125Z,99.90
2019-02-24T23:38:02.604Z,99.90
2019-02-24T23:40:31.137Z,99.90
2019-02-24T23:42:59.601Z,99.90
2019-02-24T23:45:28.007Z,99.90
2019-02-24T23:47:56.536Z,99.90
2019-02-24T23:50:25.016Z,99.90
2019-02-24T23:52:53.483Z,99.90
2019-02-24T23:55:22.023Z,99.90
2019-02-24T23:57:50.522Z,99.90
